createdAt,value
2023-04-11T00:02:13.972Z,5.63
2023-04-11T00:04:41.144Z,5.63
2023-04-11T00:07:09.540Z,5.56
2023-04-11T00:09:36.750Z,5.57
2023-04-11T00:12:04.000Z,5.58
2023-04-11T00:14:34.709Z,5.55
2023-04-11T00:17:01.897Z,5.52
2023-04-11T00:19:28.945Z,5.45
2023-04-11T00:21:59.269Z,5.47
2023-04-11T00:24:27.082Z,5.46
2023-04-11T00:26:54.608Z,5.47
2023-04-11T00:29:21.974Z,5.45
2023-04-11T00:31:49.113Z,5.38
2023-04-11T00:34:16.218Z,5.38
2023-04-11T00:36:43.315Z,5.40
2023-04-11T00:39:10.763Z,5.41
2023-04-11T00:41:37.722Z,5.34
2023-04-11T00:44:04.852Z,5.39
2023-04-11T00:46:32.092Z,5.36
2023-04-11T00:48:59.610Z,5.37
2023-04-11T00:51:27.353Z,5.43
2023-04-11T00:53:54.805Z,5.40
2023-04-11T00:56:22.454Z,5.44
2023-04-11T00:58:49.635Z,5.46
2023-04-11T01:01:16.940Z,5.47
2023-04-11T01:03:45.634Z,5.47
2023-04-11T01:06:14.732Z,5.45
2023-04-11T01:08:43.617Z,5.48
2023-04-11T01:11:13.018Z,5.48
2023-04-11T01:13:40.505Z,5.49
2023-04-11T01:16:08.464Z,5.47
2023-04-11T01:18:35.917Z,5.41
2023-04-11T01:21:03.157Z,5.45
2023-04-11T01:23:30.217Z,5.43
2023-04-11T01:25:57.305Z,5.47
2023-04-11T02:30:27.275Z,4.87
2023-04-11T02:32:54.429Z,4.83
2023-04-11T02:35:21.346Z,4.91
2023-04-11T02:37:48.265Z,4.85
2023-04-11T02:40:15.265Z,4.91
2023-04-11T02:42:43.517Z,4.94
2023-04-11T02:45:12.028Z,4.97
2023-04-11T02:47:40.206Z,4.93
2023-04-11T05:08:03.691Z,4.39
2023-04-11T05:10:33.017Z,4.47
2023-04-11T05:13:00.158Z,4.51
2023-04-11T05:15:27.123Z,4.64
2023-04-11T05:17:54.779Z,4.69
2023-04-11T05:20:22.168Z,4.75
2023-04-11T05:22:51.092Z,4.77
2023-04-11T05:25:18.702Z,4.78
2023-04-11T05:27:46.365Z,4.77
2023-04-11T05:30:13.996Z,4.88
2023-04-11T05:32:43.199Z,4.97
2023-04-11T05:35:11.017Z,5.02
2023-04-11T05:37:51.196Z,5.00
2023-04-11T05:40:18.839Z,5.05
2023-04-11T05:42:46.311Z,5.07
2023-04-11T05:45:13.317Z,5.18
2023-04-11T05:47:40.323Z,5.21
2023-04-11T05:50:08.771Z,5.30
2023-04-11T05:52:36.327Z,5.42
2023-04-11T05:55:04.920Z,5.54
2023-04-11T05:57:33.097Z,5.62
2023-04-11T06:00:02.278Z,5.72
2023-04-11T06:02:40.332Z,5.79
2023-04-11T06:05:08.138Z,5.91
2023-04-11T06:07:36.134Z,5.97
2023-04-11T06:10:03.431Z,6.04
2023-04-11T06:12:30.517Z,6.13
2023-04-11T06:14:57.647Z,6.10
2023-04-11T06:17:24.674Z,6.10
2023-04-11T06:19:52.195Z,6.23
2023-04-11T06:22:19.242Z,6.18
2023-04-11T06:24:46.216Z,6.24
2023-04-11T06:27:13.558Z,6.27
2023-04-11T06:29:43.883Z,6.31
2023-04-11T06:32:12.637Z,6.42
2023-04-11T06:34:40.062Z,6.47
2023-04-11T06:37:07.553Z,6.47
2023-04-11T06:39:36.278Z,6.51
2023-04-11T06:42:03.718Z,6.59
2023-04-11T06:44:33.933Z,6.62
2023-04-11T06:47:01.186Z,6.68
2023-04-11T06:49:31.549Z,6.70
2023-04-11T06:51:59.838Z,6.80
2023-04-11T06:54:26.775Z,6.96
2023-04-11T06:56:53.827Z,7.02
2023-04-11T06:59:22.155Z,7.07
2023-04-11T07:01:50.152Z,7.06
2023-04-11T07:04:17.576Z,7.10
2023-04-11T07:06:44.922Z,6.94
2023-04-11T07:09:14.982Z,6.87
2023-04-11T07:11:41.992Z,6.85
2023-04-11T07:14:08.944Z,6.87
2023-04-11T07:16:36.338Z,6.94
2023-04-11T07:19:03.761Z,7.02
2023-04-11T07:21:32.570Z,7.08
2023-04-11T07:24:00.990Z,7.12
2023-04-11T07:26:32.736Z,7.20
2023-04-11T07:28:59.882Z,7.24
2023-04-11T07:31:27.662Z,7.31
2023-04-11T07:33:54.964Z,7.40
2023-04-11T07:36:22.207Z,7.44
2023-04-11T07:38:49.130Z,7.48
2023-04-11T07:41:16.610Z,7.49
2023-04-11T07:43:43.663Z,7.58
2023-04-11T07:46:12.622Z,7.61
2023-04-11T07:48:39.790Z,7.69
2023-04-11T07:51:08.690Z,7.68
2023-04-11T07:53:36.063Z,7.75
2023-04-11T07:56:03.132Z,7.90
2023-04-11T07:58:30.732Z,8.10
2023-04-11T08:00:59.234Z,8.25
2023-04-11T08:03:27.293Z,8.36
2023-04-11T08:05:54.472Z,8.36
2023-04-11T08:08:22.593Z,8.35
2023-04-11T08:10:51.924Z,8.33
2023-04-11T08:13:19.165Z,8.34
2023-04-11T08:15:47.850Z,8.42
2023-04-11T08:18:16.704Z,8.47
2023-04-11T08:20:43.728Z,8.56
2023-04-11T08:23:11.560Z,8.55
2023-04-11T08:25:40.558Z,8.81
2023-04-11T08:28:10.545Z,8.84
2023-04-11T08:30:37.718Z,8.79
2023-04-11T08:33:04.976Z,8.70
2023-04-11T08:35:31.962Z,8.68
2023-04-11T08:37:58.886Z,8.70
2023-04-11T08:40:27.086Z,8.62
2023-04-11T08:43:03.056Z,8.70
2023-04-11T08:45:30.029Z,8.84
2023-04-11T08:47:57.158Z,8.99
2023-04-11T08:50:24.274Z,9.04
2023-04-11T08:52:53.294Z,9.18
2023-04-11T08:55:21.586Z,9.25
2023-04-11T08:57:48.612Z,9.35
2023-04-11T09:00:19.404Z,9.38
2023-04-11T09:03:02.244Z,9.53
2023-04-11T09:05:40.005Z,9.68
2023-04-11T09:08:12.529Z,9.91
2023-04-11T09:10:41.194Z,10.16
2023-04-11T09:13:27.951Z,10.46
2023-04-11T09:16:22.459Z,10.54
2023-04-11T09:18:49.573Z,10.59
2023-04-11T09:21:17.462Z,10.84
2023-04-11T09:23:44.505Z,10.87
2023-04-11T09:26:12.918Z,10.90
2023-04-11T09:28:45.084Z,10.83
2023-04-11T09:31:13.666Z,10.81
2023-04-11T09:33:52.859Z,10.62
2023-04-11T09:36:22.707Z,10.39
2023-04-11T09:38:49.930Z,10.23
2023-04-11T09:41:37.956Z,10.15
2023-04-11T09:44:05.486Z,10.11
2023-04-11T09:46:32.766Z,10.15
2023-04-11T09:49:02.158Z,10.26
2023-04-11T09:51:36.475Z,10.37
2023-04-11T09:54:05.426Z,10.28
2023-04-11T09:56:35.084Z,10.24
2023-04-11T09:59:02.788Z,10.28
2023-04-11T10:01:30.888Z,10.28
2023-04-11T10:04:02.110Z,10.38
2023-04-11T10:06:48.291Z,10.70
2023-04-11T10:09:15.938Z,10.90
2023-04-11T10:11:44.399Z,10.70
2023-04-11T10:14:39.783Z,10.71
2023-04-11T10:17:20.604Z,10.74
2023-04-11T10:19:52.793Z,10.77
2023-04-11T10:22:54.410Z,10.96
2023-04-11T10:25:24.017Z,11.16
2023-04-11T10:28:13.325Z,11.28
2023-04-11T10:30:40.350Z,11.44
2023-04-11T10:33:20.607Z,11.75
2023-04-11T10:36:17.298Z,12.19
2023-04-11T10:38:50.067Z,12.42
2023-04-11T10:41:17.432Z,12.44
2023-04-11T10:43:46.177Z,12.35
2023-04-11T10:46:25.999Z,12.56
2023-04-11T10:49:03.853Z,12.58
2023-04-11T10:51:33.254Z,12.64
2023-04-11T10:54:01.520Z,12.72
2023-04-11T10:56:47.407Z,12.77
2023-04-11T10:59:32.850Z,12.76
2023-04-11T11:02:03.850Z,12.51
2023-04-11T11:04:35.822Z,12.72
2023-04-11T11:07:05.149Z,12.63
2023-04-11T11:09:32.435Z,12.49
2023-04-11T11:12:15.645Z,12.18
2023-04-11T11:14:44.883Z,11.96
2023-04-11T11:17:15.448Z,11.74
2023-04-11T11:19:47.197Z,11.59
2023-04-11T11:22:28.955Z,11.40
2023-04-11T11:25:07.957Z,11.55
2023-04-11T11:27:35.015Z,11.60
2023-04-11T11:30:12.123Z,11.47
2023-04-11T11:32:39.486Z,11.54
2023-04-11T11:35:13.671Z,11.92
2023-04-11T11:37:41.017Z,12.17
2023-04-11T11:40:13.233Z,12.24
2023-04-11T11:42:41.477Z,12.42
2023-04-11T11:45:19.547Z,12.51
2023-04-11T11:47:48.611Z,12.68
2023-04-11T11:50:33.671Z,12.90
2023-04-11T11:53:21.592Z,12.97
2023-04-11T11:55:48.872Z,13.05
2023-04-11T11:58:17.696Z,13.06
2023-04-11T12:00:48.975Z,13.01
2023-04-11T12:03:23.216Z,13.27
2023-04-11T12:05:55.383Z,13.41
2023-04-11T12:08:22.716Z,13.56
2023-04-11T12:10:51.100Z,13.51
2023-04-11T12:13:23.727Z,13.30
2023-04-11T12:15:53.141Z,13.45
2023-04-11T12:18:22.135Z,13.70
2023-04-11T12:20:50.022Z,13.95
2023-04-11T12:23:17.659Z,14.00
2023-04-11T12:25:44.778Z,13.74
2023-04-11T12:28:12.246Z,13.34
2023-04-11T12:30:40.124Z,12.92
2023-04-11T12:33:07.349Z,12.69
2023-04-11T12:35:34.753Z,12.55
2023-04-11T12:38:02.039Z,12.34
2023-04-11T12:40:30.045Z,12.52
2023-04-11T12:42:59.342Z,12.83
2023-04-11T12:45:26.465Z,13.09
2023-04-11T12:47:54.142Z,13.25
2023-04-11T12:50:24.383Z,13.64
2023-04-11T12:52:52.081Z,13.62
2023-04-11T12:55:19.279Z,13.61
2023-04-11T12:57:46.423Z,13.76
2023-04-11T13:00:14.188Z,13.84
2023-04-11T13:02:44.515Z,13.74
2023-04-11T13:05:15.953Z,13.38
2023-04-11T13:07:45.425Z,13.28
2023-04-11T13:10:14.301Z,13.24
2023-04-11T13:12:44.887Z,13.35
2023-04-11T13:15:13.651Z,13.62
2023-04-11T13:17:42.608Z,13.88
2023-04-11T13:20:11.456Z,13.89
2023-04-11T13:22:42.955Z,13.71
2023-04-11T13:25:11.324Z,13.51
2023-04-11T13:27:40.395Z,13.52
2023-04-11T13:30:09.030Z,13.43
2023-04-11T13:32:36.438Z,13.25
2023-04-11T13:35:04.508Z,13.00
2023-04-11T13:37:31.484Z,12.80
2023-04-11T13:39:58.448Z,12.63
2023-04-11T13:42:25.762Z,12.75
2023-04-11T13:44:52.745Z,12.71
2023-04-11T13:47:19.826Z,12.58
2023-04-11T13:49:47.288Z,12.66
2023-04-11T13:52:15.914Z,12.72
2023-04-11T13:54:45.831Z,12.81
2023-04-11T13:57:13.379Z,12.83
2023-04-11T13:59:41.678Z,12.63
2023-04-11T14:02:08.776Z,12.59
2023-04-11T14:04:35.848Z,12.48
2023-04-11T14:07:02.902Z,12.32
2023-04-11T14:09:29.890Z,12.28
2023-04-11T14:11:57.276Z,12.11
2023-04-11T14:14:24.422Z,12.08
2023-04-11T14:16:51.862Z,12.06
2023-04-11T14:19:18.869Z,12.02
2023-04-11T14:21:45.954Z,12.05
2023-04-11T14:24:13.125Z,12.05
2023-04-11T14:26:40.082Z,11.96
2023-04-11T14:29:10.565Z,12.05
2023-04-11T14:31:38.945Z,12.05
2023-04-11T14:34:06.168Z,11.92
2023-04-11T14:36:33.145Z,11.90
2023-04-11T14:39:03.188Z,11.77
2023-04-11T14:41:30.177Z,11.83
2023-04-11T14:43:57.605Z,11.82
2023-04-11T14:46:26.447Z,11.74
2023-04-11T14:48:53.432Z,11.79
2023-04-11T14:51:20.455Z,11.71
2023-04-11T14:53:54.734Z,11.95
2023-04-11T14:56:25.808Z,12.27
2023-04-11T14:58:53.929Z,12.42
2023-04-11T15:01:21.553Z,12.42
2023-04-11T15:03:49.221Z,12.39
2023-04-11T15:06:16.501Z,12.22
2023-04-11T15:08:43.710Z,12.16
2023-04-11T15:11:10.981Z,12.00
2023-04-11T15:13:37.951Z,11.93
2023-04-11T15:16:06.952Z,11.89
2023-04-11T15:18:34.175Z,11.68
2023-04-11T15:21:03.485Z,11.61
2023-04-11T15:23:30.757Z,11.58
2023-04-11T15:26:03.138Z,11.50
2023-04-11T15:28:36.077Z,11.44
2023-04-11T15:31:06.710Z,11.34
2023-04-11T15:33:34.270Z,11.44
2023-04-11T15:36:03.459Z,11.40
2023-04-11T15:38:30.871Z,11.37
2023-04-11T15:41:00.351Z,11.56
2023-04-11T15:43:27.818Z,11.61
2023-04-11T15:45:55.145Z,11.70
2023-04-11T15:48:22.213Z,11.65
2023-04-11T15:50:49.379Z,11.52
2023-04-11T15:53:16.538Z,11.41
2023-04-11T15:55:44.392Z,11.39
2023-04-11T15:58:11.715Z,11.34
2023-04-11T16:00:40.383Z,11.26
2023-04-11T16:03:08.845Z,11.27
2023-04-11T16:05:40.444Z,11.11
2023-04-11T16:08:08.090Z,11.14
2023-04-11T16:10:35.384Z,11.10
2023-04-11T16:13:02.738Z,11.12
2023-04-11T16:15:29.935Z,11.04
2023-04-11T16:17:56.986Z,11.03
2023-04-11T16:20:23.962Z,11.04
2023-04-11T16:22:51.001Z,10.92
2023-04-11T16:25:21.531Z,10.88
2023-04-11T16:27:49.200Z,10.80
2023-04-11T16:30:16.843Z,10.67
2023-04-11T16:32:44.474Z,10.62
2023-04-11T16:35:11.698Z,10.53
2023-04-11T16:37:38.840Z,10.50
2023-04-11T16:40:11.696Z,10.49
2023-04-11T16:42:39.985Z,10.44
2023-04-11T16:45:08.265Z,10.34
2023-04-11T16:47:35.362Z,10.25
2023-04-11T16:50:02.495Z,10.26
2023-04-11T16:52:29.800Z,10.20
2023-04-11T16:54:56.763Z,10.11
2023-04-11T16:57:25.221Z,10.03
2023-04-11T16:59:53.487Z,10.10
2023-04-11T17:02:23.186Z,10.09
2023-04-11T17:04:50.275Z,10.01
2023-04-11T17:07:18.745Z,9.99
2023-04-11T17:09:49.536Z,9.95
2023-04-11T17:12:16.635Z,9.92
2023-04-11T17:14:44.477Z,9.91
2023-04-11T17:17:11.558Z,9.96
2023-04-11T17:19:40.141Z,9.89
2023-04-11T17:22:07.432Z,9.86
2023-04-11T17:24:34.640Z,9.85
2023-04-11T17:27:02.022Z,9.79
2023-04-11T17:29:29.319Z,9.81
2023-04-11T17:31:56.987Z,9.73
2023-04-11T17:34:27.771Z,9.76
2023-04-11T17:36:54.996Z,9.65
2023-04-11T17:39:22.263Z,9.67
2023-04-11T17:41:49.304Z,9.61
2023-04-11T17:44:16.509Z,9.60
2023-04-11T17:46:44.940Z,9.47
2023-04-11T17:49:11.949Z,9.51
2023-04-11T17:51:45.876Z,9.46
2023-04-11T17:54:16.984Z,9.42
2023-04-11T17:56:45.677Z,9.38
2023-04-11T17:59:14.527Z,9.34
2023-04-11T18:01:42.550Z,9.37
2023-04-11T18:04:09.980Z,9.33
2023-04-11T18:06:36.972Z,9.26
2023-04-11T18:09:05.552Z,9.34
2023-04-11T18:11:32.893Z,9.38
2023-04-11T18:13:59.987Z,9.42
2023-04-11T18:16:30.767Z,9.33
2023-04-11T18:18:57.939Z,9.53
2023-04-11T18:21:25.168Z,9.45
2023-04-11T18:23:56.297Z,9.56
2023-04-11T18:26:23.736Z,9.53
2023-04-11T18:28:50.774Z,9.53
2023-04-11T18:31:18.390Z,9.42
2023-04-11T18:33:59.776Z,9.46
2023-04-11T18:36:27.915Z,9.47
2023-04-11T18:38:58.352Z,9.48
2023-04-11T18:41:26.096Z,9.46
2023-04-11T18:43:53.039Z,9.41
2023-04-11T18:46:20.119Z,9.43
2023-04-11T18:48:47.104Z,9.38
2023-04-11T18:51:14.021Z,9.35
2023-04-11T18:53:42.050Z,9.33
2023-04-11T18:56:09.468Z,9.44
2023-04-11T18:58:45.552Z,9.43
2023-04-11T19:01:17.097Z,9.45
2023-04-11T19:03:45.399Z,9.43
2023-04-11T19:06:13.346Z,9.34
2023-04-11T19:08:40.816Z,9.26
2023-04-11T19:11:07.953Z,9.33
2023-04-11T19:13:34.888Z,9.30
2023-04-11T19:16:02.181Z,9.31
2023-04-11T19:18:29.156Z,9.28
2023-04-11T19:20:56.133Z,9.27
2023-04-11T19:23:23.177Z,9.25
2023-04-11T19:25:50.849Z,9.21
2023-04-11T19:28:18.030Z,9.12
2023-04-11T19:30:45.077Z,9.15
2023-04-11T19:33:12.102Z,9.13
2023-04-11T19:35:40.896Z,9.09
2023-04-11T19:38:09.492Z,9.07
2023-04-11T19:40:36.474Z,8.96
2023-04-11T19:43:03.896Z,8.95
2023-04-11T19:45:32.293Z,8.84
2023-04-11T19:47:59.667Z,8.79
2023-04-11T19:50:26.613Z,8.73
2023-04-11T19:52:57.061Z,8.72
2023-04-11T19:55:24.835Z,8.68
2023-04-11T19:57:51.853Z,8.62
2023-04-11T20:00:19.641Z,8.58
2023-04-11T20:02:51.721Z,8.57
2023-04-11T20:05:20.356Z,8.51
2023-04-11T20:07:48.317Z,8.45
2023-04-11T20:10:16.557Z,8.42
2023-04-11T20:12:43.549Z,8.36
2023-04-11T20:15:11.268Z,8.33
2023-04-11T20:17:38.392Z,8.27
2023-04-11T20:20:09.094Z,8.18
2023-04-11T20:22:38.568Z,8.22
2023-04-11T20:25:06.802Z,8.21
2023-04-11T20:27:34.147Z,8.16
2023-04-11T20:30:02.116Z,8.07
2023-04-11T20:32:29.102Z,8.04
2023-04-11T20:34:56.604Z,7.99
2023-04-11T20:37:23.709Z,8.00
2023-04-11T20:39:51.820Z,7.86
2023-04-11T20:42:20.701Z,7.95
2023-04-11T20:44:48.118Z,7.95
2023-04-11T20:47:15.271Z,7.96
2023-04-11T20:49:45.977Z,7.97
2023-04-11T20:52:12.998Z,7.95
2023-04-11T20:54:41.252Z,7.90
2023-04-11T20:57:08.478Z,7.98
2023-04-11T20:59:37.210Z,7.96
2023-04-11T21:02:04.300Z,7.99
2023-04-11T21:04:31.581Z,7.99
2023-04-11T21:06:58.832Z,7.97
2023-04-11T21:09:25.824Z,7.98
2023-04-11T21:11:52.708Z,7.97
2023-04-11T21:14:19.604Z,7.90
2023-04-11T21:16:46.518Z,7.93
2023-04-11T21:19:14.020Z,7.93
2023-04-11T21:21:41.123Z,7.94
2023-04-11T21:24:08.910Z,7.95
2023-04-11T21:26:36.694Z,7.94
2023-04-11T21:29:03.593Z,7.89
2023-04-11T21:31:30.791Z,7.94
2023-04-11T21:33:57.863Z,7.89
2023-04-11T21:36:24.996Z,7.90
2023-04-11T21:38:52.224Z,7.87
2023-04-11T21:41:19.333Z,7.87
2023-04-11T21:43:46.281Z,7.91
2023-04-11T21:46:13.276Z,7.87
2023-04-11T21:48:42.110Z,7.93
2023-04-11T21:51:09.080Z,7.93
2023-04-11T21:53:36.196Z,7.90
2023-04-11T21:56:03.215Z,7.90
2023-04-11T21:58:30.248Z,7.93
2023-04-11T22:00:57.273Z,7.94
2023-04-11T22:03:24.793Z,7.99
2023-04-11T22:05:52.614Z,7.97
2023-04-11T22:08:20.431Z,7.98
2023-04-11T22:10:48.365Z,7.98
2023-04-11T22:13:17.301Z,7.91
2023-04-11T22:15:45.153Z,7.93
2023-04-11T22:18:12.815Z,7.93
2023-04-11T22:20:44.080Z,7.91
2023-04-11T22:23:13.250Z,7.92
2023-04-11T22:25:44.583Z,7.90
2023-04-11T22:28:22.526Z,7.89
2023-04-11T22:30:50.722Z,7.89
2023-04-11T22:33:17.653Z,7.87
2023-04-11T22:35:45.284Z,7.89
2023-04-11T22:38:12.239Z,7.92
2023-04-11T22:40:40.396Z,7.93
2023-04-11T22:43:07.409Z,7.94
2023-04-11T22:45:37.481Z,7.95
2023-04-11T22:48:06.279Z,7.95
2023-04-11T22:50:38.148Z,7.98
2023-04-11T22:53:05.666Z,7.96
2023-04-11T22:55:35.863Z,7.97
2023-04-11T22:58:03.493Z,7.96
2023-04-11T23:00:30.544Z,7.98
2023-04-11T23:02:59.978Z,8.02
2023-04-11T23:05:27.167Z,7.99
2023-04-11T23:07:54.197Z,7.95
2023-04-11T23:10:21.165Z,7.98
2023-04-11T23:12:49.667Z,7.96
2023-04-11T23:15:17.677Z,7.97
2023-04-11T23:17:45.154Z,7.99
2023-04-11T23:20:13.798Z,7.96
2023-04-11T23:22:42.718Z,7.94
2023-04-11T23:25:11.181Z,7.91
2023-04-11T23:27:39.161Z,7.92
2023-04-11T23:30:06.626Z,7.93
2023-04-11T23:32:34.240Z,7.94
2023-04-11T23:35:01.795Z,7.91
2023-04-11T23:37:28.738Z,7.86
2023-04-11T23:39:55.723Z,7.87
2023-04-11T23:42:22.870Z,7.85
2023-04-11T23:44:49.808Z,7.83
2023-04-11T23:47:16.750Z,7.83
2023-04-11T23:49:44.623Z,7.80
2023-04-11T23:52:12.550Z,7.78
2023-04-11T23:54:39.545Z,7.81
2023-04-11T23:57:06.485Z,7.79
2023-04-11T23:59:33.462Z,7.76
